Aérodrome :
LOGIN :

S'inscrire | Disclaimer

   EN    FR    IT 

 










Légende :    VFR   VFR Marginal   IFR   IFR Intensif   IFR Très Intensif
Visi : 
Plafond : 
>= 8 km
>= 3000ft
5 à 8 km
1000 à 3000 ft
1500m à 5 km
500 à 1000 ft
800 à 1500m
200 à 500 ft
< 800m
< 200 ft
Symboles :   Orages  Brouillard  Fortes neiges  Fortes précipitations  Vent > 20 kt
SIGMETs :   Divers  Orages  Givrage  Turbulence  Onde Orograph.  Cendres Volcan.






- Altitude de l'aérodrome : 458 ft


LFSI - St-Dizier

DERNIER METAR :
  • 231700Z AUTO 36009KT 9999 BKN031/// BKN045/// BKN056/// ///CB 22/14 Q1018

METARs EXPIRÉS :
  • 231630Z AUTO 35010KT 310V020 9999 FEW007/// SCT041/// BKN047/// ///CB 23/14 Q1018
  • 231600Z AUTO 35012KT 9999 FEW029/// BKN044/// BKN050/// ///CB 23/14 Q1018
  • 231530Z AUTO 32014KT 9999 FEW031/// BKN039/// OVC047/// ///CB 22/15 Q1018
  • 231500Z AUTO 31014KT 9999 4200 FEW030/// BKN038/// BKN049/// ///CB 24/15 Q1018
  • 231430Z AUTO 33010KT 270V010 9999 FEW034/// SCT047/// BKN090/// ///TCU 23/14 Q1018

TAF TAF LFSI
Valide du 23 à 15h jusqu'au 24 à 15h UTC


231400Z 2315/2415 32010KT 9999 FEW040TCU SCT045 BKN110
PROB30
TEMPO 2320/2324 4000 SHRA FEW010 SCT060CB BKN100 BKN140
TEMPO 2400/2410 4000 SHRA BKN010 BKN050CB BKN100
TEMPO 2400/2409 4000 BR BKN005 BKN015 BKN040
TEMPO 2410/2415 4000 SHRA SCT015 BKN030CB BKN060



MET'MAP, la Météo Aéronautique d'un coup d'oeil ! - Copyright ORBIFLY Décembre 2007 - Disclaimer

ORBIFLY MET'MAP TEAM :

Programmation & Développement : Alexandra Zaïnal
Sur une idée originale de : Baudouin d'Aumeries
Assistance à la programmation : Marc-Olivier Méhu
Soutien technique & logistique : Manuel Goepfert

Contact : metmap@orbifly.com




SOURCES & CREDITS :

   NOAA